sensor_id;sensor_type;location;lat;lon;timestamp;P1;durP1;ratioP1;P2;durP2;ratioP2
15065;SDS011;7632;64.944;20.038;2024-02-21T00:01:23;1.60;;;1.00;;
15065;SDS011;7632;64.944;20.038;2024-02-21T00:03:49;1.33;;;1.10;;
15065;SDS011;7632;64.944;20.038;2024-02-21T00:06:16;1.07;;;0.97;;
15065;SDS011;7632;64.944;20.038;2024-02-21T00:08:45;1.07;;;0.97;;
15065;SDS011;7632;64.944;20.038;2024-02-21T00:11:11;1.30;;;1.20;;
15065;SDS011;7632;64.944;20.038;2024-02-21T00:13:38;1.10;;;1.00;;
15065;SDS011;7632;64.944;20.038;2024-02-21T03:15:10;1.53;;;1.33;;
15065;SDS011;7632;64.944;20.038;2024-02-21T03:17:37;1.50;;;1.20;;
15065;SDS011;7632;64.944;20.038;2024-02-21T03:20:04;1.77;;;1.23;;
15065;SDS011;7632;64.944;20.038;2024-02-21T03:22:34;1.60;;;1.47;;
15065;SDS011;7632;64.944;20.038;2024-02-21T03:25:01;1.43;;;1.20;;
15065;SDS011;7632;64.944;20.038;2024-02-21T03:27:28;3.03;;;1.40;;
15065;SDS011;7632;64.944;20.038;2024-02-21T03:29:55;2.03;;;1.20;;
15065;SDS011;7632;64.944;20.038;2024-02-21T03:32:23;1.40;;;1.30;;
15065;SDS011;7632;64.944;20.038;2024-02-21T03:34:50;1.70;;;1.33;;
15065;SDS011;7632;64.944;20.038;2024-02-21T03:37:16;1.70;;;1.60;;
15065;SDS011;7632;64.944;20.038;2024-02-21T03:39:43;1.50;;;1.13;;
15065;SDS011;7632;64.944;20.038;2024-02-21T03:42:11;1.40;;;1.30;;
15065;SDS011;7632;64.944;20.038;2024-02-21T03:44:38;1.93;;;1.50;;
15065;SDS011;7632;64.944;20.038;2024-02-21T03:47:05;1.73;;;1.50;;
15065;SDS011;7632;64.944;20.038;2024-02-21T03:49:36;1.40;;;1.30;;
15065;SDS011;7632;64.944;20.038;2024-02-21T03:52:03;1.40;;;1.30;;
15065;SDS011;7632;64.944;20.038;2024-02-21T03:54:31;1.47;;;1.37;;
15065;SDS011;7632;64.944;20.038;2024-02-21T03:56:57;2.03;;;1.37;;
15065;SDS011;7632;64.944;20.038;2024-02-21T03:59:24;1.70;;;1.40;;
15065;SDS011;7632;64.944;20.038;2024-02-21T04:01:51;1.83;;;1.40;;
15065;SDS011;7632;64.944;20.038;2024-02-21T04:04:18;2.00;;;1.40;;
15065;SDS011;7632;64.944;20.038;2024-02-21T04:06:48;1.93;;;1.23;;
15065;SDS011;7632;64.944;20.038;2024-02-21T04:09:15;1.43;;;1.30;;
15065;SDS011;7632;64.944;20.038;2024-02-21T04:11:42;1.43;;;1.30;;
15065;SDS011;7632;64.944;20.038;2024-02-21T04:14:09;1.67;;;1.40;;
15065;SDS011;7632;64.944;20.038;2024-02-21T04:16:37;1.90;;;1.60;;
15065;SDS011;7632;64.944;20.038;2024-02-21T04:19:04;2.00;;;1.60;;
15065;SDS011;7632;64.944;20.038;2024-02-21T04:21:31;1.43;;;1.33;;
15065;SDS011;7632;64.944;20.038;2024-02-21T04:23:59;2.13;;;1.67;;
15065;SDS011;7632;64.944;20.038;2024-02-21T04:26:27;2.80;;;1.70;;
15065;SDS011;7632;64.944;20.038;2024-02-21T04:28:55;2.37;;;1.23;;
15065;SDS011;7632;64.944;20.038;2024-02-21T04:31:22;1.50;;;1.40;;
15065;SDS011;7632;64.944;20.038;2024-02-21T04:33:49;1.90;;;1.50;;
15065;SDS011;7632;64.944;20.038;2024-02-21T04:36:16;1.70;;;1.60;;
15065;SDS011;7632;64.944;20.038;2024-02-21T04:38:43;2.33;;;1.50;;
15065;SDS011;7632;64.944;20.038;2024-02-21T04:41:11;2.67;;;2.10;;
15065;SDS011;7632;64.944;20.038;2024-02-21T04:43:38;1.50;;;1.40;;
15065;SDS011;7632;64.944;20.038;2024-02-21T04:46:06;1.77;;;1.40;;
15065;SDS011;7632;64.944;20.038;2024-02-21T04:48:32;1.37;;;1.27;;
15065;SDS011;7632;64.944;20.038;2024-02-21T04:50:59;1.70;;;1.60;;
15065;SDS011;7632;64.944;20.038;2024-02-21T04:53:26;1.60;;;1.30;;
15065;SDS011;7632;64.944;20.038;2024-02-21T04:55:53;1.77;;;1.50;;
15065;SDS011;7632;64.944;20.038;2024-02-21T04:58:21;1.60;;;1.30;;
15065;SDS011;7632;64.944;20.038;2024-02-21T05:00:48;1.37;;;1.20;;
15065;SDS011;7632;64.944;20.038;2024-02-21T05:03:15;1.70;;;1.43;;
15065;SDS011;7632;64.944;20.038;2024-02-21T05:05:42;2.30;;;1.40;;
15065;SDS011;7632;64.944;20.038;2024-02-21T05:08:09;1.60;;;1.30;;
15065;SDS011;7632;64.944;20.038;2024-02-21T05:10:36;2.43;;;1.60;;
15065;SDS011;7632;64.944;20.038;2024-02-21T05:13:03;1.53;;;1.30;;
15065;SDS011;7632;64.944;20.038;2024-02-21T05:15:32;1.40;;;1.20;;
15065;SDS011;7632;64.944;20.038;2024-02-21T05:17:59;1.30;;;1.20;;
15065;SDS011;7632;64.944;20.038;2024-02-21T05:20:26;1.57;;;1.17;;
15065;SDS011;7632;64.944;20.038;2024-02-21T05:22:52;1.50;;;1.30;;
15065;SDS011;7632;64.944;20.038;2024-02-21T05:25:19;2.03;;;1.50;;
15065;SDS011;7632;64.944;20.038;2024-02-21T05:27:46;3.10;;;1.90;;
15065;SDS011;7632;64.944;20.038;2024-02-21T05:30:13;1.50;;;1.30;;
15065;SDS011;7632;64.944;20.038;2024-02-21T05:32:41;1.43;;;1.20;;
15065;SDS011;7632;64.944;20.038;2024-02-21T05:35:08;1.80;;;1.40;;
15065;SDS011;7632;64.944;20.038;2024-02-21T05:37:35;1.40;;;1.30;;
15065;SDS011;7632;64.944;20.038;2024-02-21T05:40:02;1.53;;;1.40;;
15065;SDS011;7632;64.944;20.038;2024-02-21T05:42:29;1.60;;;1.50;;
15065;SDS011;7632;64.944;20.038;2024-02-21T05:44:56;1.40;;;1.30;;
15065;SDS011;7632;64.944;20.038;2024-02-21T05:47:23;1.60;;;1.20;;
15065;SDS011;7632;64.944;20.038;2024-02-21T05:49:51;1.50;;;1.30;;
15065;SDS011;7632;64.944;20.038;2024-02-21T05:52:19;1.60;;;1.20;;
15065;SDS011;7632;64.944;20.038;2024-02-21T05:54:46;1.13;;;1.03;;
15065;SDS011;7632;64.944;20.038;2024-02-21T05:57:13;1.57;;;1.30;;
15065;SDS011;7632;64.944;20.038;2024-02-21T05:59:39;1.73;;;1.40;;
15065;SDS011;7632;64.944;20.038;2024-02-21T06:02:07;1.27;;;1.17;;
15065;SDS011;7632;64.944;20.038;2024-02-21T06:04:34;1.43;;;1.23;;
15065;SDS011;7632;64.944;20.038;2024-02-21T06:07:02;1.30;;;1.20;;
15065;SDS011;7632;64.944;20.038;2024-02-21T06:09:29;1.80;;;1.20;;
15065;SDS011;7632;64.944;20.038;2024-02-21T06:11:57;1.30;;;1.20;;
15065;SDS011;7632;64.944;20.038;2024-02-21T06:14:24;2.27;;;1.10;;
15065;SDS011;7632;64.944;20.038;2024-02-21T06:16:50;1.83;;;1.20;;
15065;SDS011;7632;64.944;20.038;2024-02-21T06:19:17;2.13;;;1.30;;
15065;SDS011;7632;64.944;20.038;2024-02-21T06:21:44;2.00;;;1.60;;
15065;SDS011;7632;64.944;20.038;2024-02-21T06:24:12;1.80;;;1.40;;
15065;SDS011;7632;64.944;20.038;2024-02-21T06:26:39;1.43;;;1.33;;
15065;SDS011;7632;64.944;20.038;2024-02-21T06:29:06;4.57;;;1.27;;
15065;SDS011;7632;64.944;20.038;2024-02-21T06:31:34;1.83;;;1.30;;
15065;SDS011;7632;64.944;20.038;2024-02-21T06:34:01;1.60;;;1.40;;
15065;SDS011;7632;64.944;20.038;2024-02-21T06:36:29;1.30;;;1.20;;
15065;SDS011;7632;64.944;20.038;2024-02-21T06:38:56;1.30;;;1.10;;
15065;SDS011;7632;64.944;20.038;2024-02-21T06:41:24;1.60;;;1.30;;
15065;SDS011;7632;64.944;20.038;2024-02-21T06:43:51;1.43;;;1.33;;
15065;SDS011;7632;64.944;20.038;2024-02-21T06:46:24;1.53;;;1.30;;
15065;SDS011;7632;64.944;20.038;2024-02-21T06:48:51;1.33;;;1.23;;
15065;SDS011;7632;64.944;20.038;2024-02-21T06:51:19;1.80;;;1.40;;
15065;SDS011;7632;64.944;20.038;2024-02-21T06:53:45;1.57;;;1.43;;
15065;SDS011;7632;64.944;20.038;2024-02-21T06:56:12;1.40;;;1.30;;
15065;SDS011;7632;64.944;20.038;2024-02-21T06:58:41;1.30;;;1.20;;
15065;SDS011;7632;64.944;20.038;2024-02-21T07:01:08;1.60;;;1.40;;
15065;SDS011;7632;64.944;20.038;2024-02-21T07:03:35;1.27;;;1.17;;
15065;SDS011;7632;64.944;20.038;2024-02-21T07:06:02;1.50;;;1.30;;
15065;SDS011;7632;64.944;20.038;2024-02-21T07:08:29;1.50;;;1.40;;
15065;SDS011;7632;64.944;20.038;2024-02-21T07:10:56;1.40;;;1.20;;
15065;SDS011;7632;64.944;20.038;2024-02-21T07:13:22;1.67;;;1.33;;
15065;SDS011;7632;64.944;20.038;2024-02-21T07:15:51;2.97;;;1.30;;
15065;SDS011;7632;64.944;20.038;2024-02-21T07:18:18;1.60;;;1.30;;
15065;SDS011;7632;64.944;20.038;2024-02-21T07:20:45;1.50;;;1.40;;
15065;SDS011;7632;64.944;20.038;2024-02-21T07:23:11;1.97;;;1.40;;
15065;SDS011;7632;64.944;20.038;2024-02-21T07:25:38;2.43;;;1.30;;
15065;SDS011;7632;64.944;20.038;2024-02-21T07:28:05;1.90;;;1.20;;
15065;SDS011;7632;64.944;20.038;2024-02-21T07:30:33;1.40;;;1.30;;
15065;SDS011;7632;64.944;20.038;2024-02-21T07:33:01;1.40;;;1.30;;
15065;SDS011;7632;64.944;20.038;2024-02-21T07:35:29;1.50;;;1.40;;
15065;SDS011;7632;64.944;20.038;2024-02-21T07:37:55;1.27;;;1.17;;
15065;SDS011;7632;64.944;20.038;2024-02-21T07:40:22;1.43;;;1.27;;
15065;SDS011;7632;64.944;20.038;2024-02-21T07:42:49;1.20;;;1.10;;
15065;SDS011;7632;64.944;20.038;2024-02-21T07:45:16;1.77;;;1.17;;
15065;SDS011;7632;64.944;20.038;2024-02-21T07:47:47;1.50;;;1.27;;
15065;SDS011;7632;64.944;20.038;2024-02-21T07:50:15;1.30;;;1.20;;
15065;SDS011;7632;64.944;20.038;2024-02-21T07:52:42;1.47;;;1.30;;
15065;SDS011;7632;64.944;20.038;2024-02-21T07:55:09;1.30;;;1.20;;
15065;SDS011;7632;64.944;20.038;2024-02-21T07:57:36;1.30;;;1.20;;
15065;SDS011;7632;64.944;20.038;2024-02-21T08:00:03;1.20;;;1.10;;
15065;SDS011;7632;64.944;20.038;2024-02-21T08:02:31;1.53;;;1.30;;
15065;SDS011;7632;64.944;20.038;2024-02-21T08:04:58;1.30;;;1.20;;
15065;SDS011;7632;64.944;20.038;2024-02-21T08:07:26;1.20;;;1.10;;
15065;SDS011;7632;64.944;20.038;2024-02-21T08:09:54;1.23;;;1.13;;
15065;SDS011;7632;64.944;20.038;2024-02-21T08:12:21;1.13;;;1.03;;
15065;SDS011;7632;64.944;20.038;2024-02-21T08:14:47;2.03;;;1.20;;
15065;SDS011;7632;64.944;20.038;2024-02-21T08:17:14;1.30;;;1.20;;
15065;SDS011;7632;64.944;20.038;2024-02-21T08:19:41;1.30;;;1.20;;
15065;SDS011;7632;64.944;20.038;2024-02-21T08:22:08;1.10;;;1.00;;
15065;SDS011;7632;64.944;20.038;2024-02-21T08:24:36;1.27;;;1.13;;
15065;SDS011;7632;64.944;20.038;2024-02-21T08:27:03;3.03;;;1.30;;
15065;SDS011;7632;64.944;20.038;2024-02-21T08:29:31;1.00;;;0.90;;
15065;SDS011;7632;64.944;20.038;2024-02-21T11:53:34;1.30;;;1.20;;
15065;SDS011;7632;64.944;20.038;2024-02-21T11:56:01;1.17;;;1.07;;
15065;SDS011;7632;64.944;20.038;2024-02-21T11:58:28;1.20;;;1.10;;
15065;SDS011;7632;64.944;20.038;2024-02-21T12:00:55;1.63;;;1.07;;
15065;SDS011;7632;64.944;20.038;2024-02-21T12:03:23;1.20;;;1.10;;
15065;SDS011;7632;64.944;20.038;2024-02-21T12:05:50;0.93;;;0.90;;
15065;SDS011;7632;64.944;20.038;2024-02-21T12:08:21;1.20;;;1.10;;
15065;SDS011;7632;64.944;20.038;2024-02-21T12:10:49;1.17;;;1.07;;
15065;SDS011;7632;64.944;20.038;2024-02-21T12:13:16;1.47;;;1.00;;
15065;SDS011;7632;64.944;20.038;2024-02-21T12:15:47;1.33;;;1.23;;
15065;SDS011;7632;64.944;20.038;2024-02-21T12:18:14;1.30;;;1.20;;
15065;SDS011;7632;64.944;20.038;2024-02-21T12:20:41;1.13;;;1.03;;
15065;SDS011;7632;64.944;20.038;2024-02-21T12:23:09;1.30;;;1.20;;
15065;SDS011;7632;64.944;20.038;2024-02-21T12:25:36;1.20;;;1.10;;
15065;SDS011;7632;64.944;20.038;2024-02-21T12:28:06;1.27;;;1.17;;
15065;SDS011;7632;64.944;20.038;2024-02-21T12:30:33;1.20;;;1.10;;
15065;SDS011;7632;64.944;20.038;2024-02-21T12:33:03;1.40;;;1.30;;
15065;SDS011;7632;64.944;20.038;2024-02-21T12:35:30;1.93;;;1.30;;
15065;SDS011;7632;64.944;20.038;2024-02-21T12:37:58;1.20;;;1.10;;
15065;SDS011;7632;64.944;20.038;2024-02-21T12:40:26;1.80;;;1.30;;
15065;SDS011;7632;64.944;20.038;2024-02-21T12:42:57;1.20;;;1.10;;
15065;SDS011;7632;64.944;20.038;2024-02-21T12:45:26;2.67;;;1.40;;
15065;SDS011;7632;64.944;20.038;2024-02-21T12:47:53;1.40;;;1.30;;
15065;SDS011;7632;64.944;20.038;2024-02-21T12:50:20;1.20;;;1.10;;
15065;SDS011;7632;64.944;20.038;2024-02-21T12:52:47;2.57;;;1.33;;
15065;SDS011;7632;64.944;20.038;2024-02-21T12:55:15;1.50;;;1.40;;
15065;SDS011;7632;64.944;20.038;2024-02-21T12:57:42;1.30;;;1.20;;
15065;SDS011;7632;64.944;20.038;2024-02-21T13:00:09;1.47;;;1.33;;
15065;SDS011;7632;64.944;20.038;2024-02-21T13:02:38;1.20;;;1.10;;
15065;SDS011;7632;64.944;20.038;2024-02-21T13:05:05;1.30;;;1.20;;
15065;SDS011;7632;64.944;20.038;2024-02-21T13:07:33;1.30;;;1.20;;
15065;SDS011;7632;64.944;20.038;2024-02-21T13:10:00;1.47;;;1.20;;
15065;SDS011;7632;64.944;20.038;2024-02-21T13:12:27;1.57;;;1.20;;
15065;SDS011;7632;64.944;20.038;2024-02-21T13:14:55;1.83;;;1.10;;
15065;SDS011;7632;64.944;20.038;2024-02-21T13:17:22;1.40;;;1.10;;
15065;SDS011;7632;64.944;20.038;2024-02-21T13:19:50;1.57;;;1.20;;
15065;SDS011;7632;64.944;20.038;2024-02-21T13:22:17;1.50;;;1.20;;
15065;SDS011;7632;64.944;20.038;2024-02-21T13:24:45;1.30;;;1.20;;
15065;SDS011;7632;64.944;20.038;2024-02-21T13:27:12;1.30;;;1.20;;
15065;SDS011;7632;64.944;20.038;2024-02-21T13:29:39;1.30;;;1.20;;
15065;SDS011;7632;64.944;20.038;2024-02-21T13:32:06;1.23;;;1.13;;
15065;SDS011;7632;64.944;20.038;2024-02-21T13:34:33;1.47;;;1.37;;
15065;SDS011;7632;64.944;20.038;2024-02-21T13:37:01;1.30;;;1.20;;
15065;SDS011;7632;64.944;20.038;2024-02-21T13:39:29;1.53;;;1.37;;
15065;SDS011;7632;64.944;20.038;2024-02-21T13:41:59;1.43;;;1.30;;
15065;SDS011;7632;64.944;20.038;2024-02-21T13:44:26;1.23;;;1.00;;
15065;SDS011;7632;64.944;20.038;2024-02-21T13:46:53;1.30;;;1.20;;
15065;SDS011;7632;64.944;20.038;2024-02-21T13:49:21;1.40;;;1.30;;
15065;SDS011;7632;64.944;20.038;2024-02-21T13:51:47;1.33;;;1.23;;
15065;SDS011;7632;64.944;20.038;2024-02-21T13:54:16;2.67;;;1.20;;
15065;SDS011;7632;64.944;20.038;2024-02-21T13:56:44;1.30;;;1.20;;
15065;SDS011;7632;64.944;20.038;2024-02-21T13:59:11;1.50;;;1.40;;
15065;SDS011;7632;64.944;20.038;2024-02-21T14:01:39;1.43;;;1.33;;
15065;SDS011;7632;64.944;20.038;2024-02-21T14:04:06;2.27;;;1.43;;
15065;SDS011;7632;64.944;20.038;2024-02-21T14:06:33;1.50;;;1.40;;
15065;SDS011;7632;64.944;20.038;2024-02-21T14:09:00;1.47;;;1.20;;
15065;SDS011;7632;64.944;20.038;2024-02-21T14:11:29;1.47;;;1.30;;
15065;SDS011;7632;64.944;20.038;2024-02-21T14:13:56;1.60;;;1.30;;
15065;SDS011;7632;64.944;20.038;2024-02-21T14:16:23;1.90;;;1.00;;
15065;SDS011;7632;64.944;20.038;2024-02-21T14:18:50;1.30;;;1.20;;
15065;SDS011;7632;64.944;20.038;2024-02-21T14:21:17;1.30;;;1.20;;
15065;SDS011;7632;64.944;20.038;2024-02-21T14:23:44;1.80;;;1.40;;
15065;SDS011;7632;64.944;20.038;2024-02-21T14:26:11;1.40;;;1.30;;
15065;SDS011;7632;64.944;20.038;2024-02-21T14:28:40;1.20;;;1.10;;
15065;SDS011;7632;64.944;20.038;2024-02-21T14:31:07;1.50;;;1.40;;
15065;SDS011;7632;64.944;20.038;2024-02-21T14:33:35;1.60;;;1.27;;
15065;SDS011;7632;64.944;20.038;2024-02-21T14:36:02;2.27;;;1.30;;
15065;SDS011;7632;64.944;20.038;2024-02-21T14:38:29;1.30;;;1.20;;
15065;SDS011;7632;64.944;20.038;2024-02-21T14:40:56;2.40;;;1.30;;
15065;SDS011;7632;64.944;20.038;2024-02-21T14:43:23;2.07;;;1.20;;
15065;SDS011;7632;64.944;20.038;2024-02-21T14:45:53;1.30;;;1.10;;
15065;SDS011;7632;64.944;20.038;2024-02-21T14:48:20;1.53;;;1.20;;
15065;SDS011;7632;64.944;20.038;2024-02-21T14:50:47;3.60;;;1.40;;
15065;SDS011;7632;64.944;20.038;2024-02-21T14:53:14;1.53;;;1.20;;
15065;SDS011;7632;64.944;20.038;2024-02-21T14:55:42;1.23;;;1.13;;
15065;SDS011;7632;64.944;20.038;2024-02-21T14:58:09;1.30;;;1.20;;
15065;SDS011;7632;64.944;20.038;2024-02-21T15:00:36;1.63;;;1.33;;
15065;SDS011;7632;64.944;20.038;2024-02-21T15:03:05;1.50;;;1.20;;
15065;SDS011;7632;64.944;20.038;2024-02-21T15:05:32;1.40;;;1.30;;
15065;SDS011;7632;64.944;20.038;2024-02-21T15:07:59;1.30;;;1.20;;
15065;SDS011;7632;64.944;20.038;2024-02-21T15:10:27;1.37;;;1.27;;
15065;SDS011;7632;64.944;20.038;2024-02-21T15:12:54;1.20;;;1.00;;
15065;SDS011;7632;64.944;20.038;2024-02-21T15:15:21;1.73;;;1.20;;
15065;SDS011;7632;64.944;20.038;2024-02-21T15:17:48;1.73;;;1.20;;
15065;SDS011;7632;64.944;20.038;2024-02-21T15:20:16;1.73;;;1.47;;
15065;SDS011;7632;64.944;20.038;2024-02-21T15:22:43;1.30;;;1.20;;
15065;SDS011;7632;64.944;20.038;2024-02-21T15:25:10;1.40;;;1.20;;
15065;SDS011;7632;64.944;20.038;2024-02-21T15:27:40;3.70;;;1.40;;
15065;SDS011;7632;64.944;20.038;2024-02-21T15:30:08;1.87;;;1.23;;
15065;SDS011;7632;64.944;20.038;2024-02-21T15:32:36;1.67;;;1.20;;
15065;SDS011;7632;64.944;20.038;2024-02-21T15:35:03;1.60;;;1.30;;
15065;SDS011;7632;64.944;20.038;2024-02-21T15:37:32;2.73;;;1.20;;
15065;SDS011;7632;64.944;20.038;2024-02-21T15:39:59;1.40;;;1.20;;
15065;SDS011;7632;64.944;20.038;2024-02-21T15:42:27;1.60;;;1.30;;
15065;SDS011;7632;64.944;20.038;2024-02-21T15:44:56;4.13;;;1.40;;
15065;SDS011;7632;64.944;20.038;2024-02-21T15:47:25;2.33;;;1.27;;
15065;SDS011;7632;64.944;20.038;2024-02-21T15:49:52;2.53;;;1.43;;
15065;SDS011;7632;64.944;20.038;2024-02-21T15:52:19;5.90;;;1.50;;
15065;SDS011;7632;64.944;20.038;2024-02-21T15:54:48;2.13;;;1.40;;
15065;SDS011;7632;64.944;20.038;2024-02-21T15:57:15;1.97;;;1.20;;
15065;SDS011;7632;64.944;20.038;2024-02-21T20:52:47;87.20;;;5.27;;
15065;SDS011;7632;64.944;20.038;2024-02-21T20:55:14;60.50;;;3.83;;
15065;SDS011;7632;64.944;20.038;2024-02-21T20:57:41;26.37;;;2.87;;
15065;SDS011;7632;64.944;20.038;2024-02-21T21:00:09;19.87;;;2.17;;
15065;SDS011;7632;64.944;20.038;2024-02-21T21:02:37;44.27;;;3.33;;
15065;SDS011;7632;64.944;20.038;2024-02-21T21:05:04;50.50;;;3.67;;
15065;SDS011;7632;64.944;20.038;2024-02-21T21:07:31;65.90;;;4.73;;
15065;SDS011;7632;64.944;20.038;2024-02-21T21:10:00;19.90;;;2.30;;
15065;SDS011;7632;64.944;20.038;2024-02-21T21:12:27;11.63;;;1.50;;
15065;SDS011;7632;64.944;20.038;2024-02-21T21:14:53;6.20;;;1.50;;
15065;SDS011;7632;64.944;20.038;2024-02-21T21:17:20;30.40;;;2.57;;
15065;SDS011;7632;64.944;20.038;2024-02-21T21:19:47;7.83;;;1.70;;
15065;SDS011;7632;64.944;20.038;2024-02-21T21:22:15;19.43;;;2.00;;
15065;SDS011;7632;64.944;20.038;2024-02-21T21:24:42;12.83;;;2.23;;
15065;SDS011;7632;64.944;20.038;2024-02-21T21:27:11;8.37;;;2.03;;
15065;SDS011;7632;64.944;20.038;2024-02-21T21:29:41;2.13;;;1.50;;
15065;SDS011;7632;64.944;20.038;2024-02-21T21:32:08;3.13;;;1.30;;
15065;SDS011;7632;64.944;20.038;2024-02-21T21:34:35;1.43;;;1.33;;
15065;SDS011;7632;64.944;20.038;2024-02-21T21:37:03;1.90;;;1.63;;
15065;SDS011;7632;64.944;20.038;2024-02-21T21:39:30;1.40;;;1.17;;
15065;SDS011;7632;64.944;20.038;2024-02-21T21:41:57;1.50;;;1.40;;
15065;SDS011;7632;64.944;20.038;2024-02-21T21:44:25;2.40;;;1.23;;
15065;SDS011;7632;64.944;20.038;2024-02-21T21:46:52;1.40;;;1.30;;
15065;SDS011;7632;64.944;20.038;2024-02-21T21:49:19;2.17;;;1.67;;
15065;SDS011;7632;64.944;20.038;2024-02-21T21:51:45;1.67;;;1.27;;
15065;SDS011;7632;64.944;20.038;2024-02-21T21:54:12;2.10;;;1.60;;
15065;SDS011;7632;64.944;20.038;2024-02-21T21:56:39;1.40;;;1.30;;
15065;SDS011;7632;64.944;20.038;2024-02-21T21:59:06;1.73;;;1.43;;
15065;SDS011;7632;64.944;20.038;2024-02-21T22:01:37;1.70;;;1.50;;
15065;SDS011;7632;64.944;20.038;2024-02-21T22:04:04;1.73;;;1.40;;
15065;SDS011;7632;64.944;20.038;2024-02-21T22:06:31;1.80;;;1.30;;
15065;SDS011;7632;64.944;20.038;2024-02-21T22:08:58;2.23;;;1.57;;
15065;SDS011;7632;64.944;20.038;2024-02-21T22:11:25;4.90;;;1.80;;
15065;SDS011;7632;64.944;20.038;2024-02-21T22:13:52;8.80;;;1.80;;
15065;SDS011;7632;64.944;20.038;2024-02-21T22:16:19;5.30;;;2.10;;
15065;SDS011;7632;64.944;20.038;2024-02-21T22:18:47;13.50;;;1.93;;
15065;SDS011;7632;64.944;20.038;2024-02-21T22:21:14;8.27;;;1.90;;
15065;SDS011;7632;64.944;20.038;2024-02-21T22:23:42;2.10;;;1.80;;
15065;SDS011;7632;64.944;20.038;2024-02-21T22:26:11;5.90;;;2.30;;
15065;SDS011;7632;64.944;20.038;2024-02-21T22:28:40;14.33;;;2.50;;
15065;SDS011;7632;64.944;20.038;2024-02-21T22:31:07;6.40;;;1.60;;
15065;SDS011;7632;64.944;20.038;2024-02-21T22:33:34;7.50;;;2.00;;
15065;SDS011;7632;64.944;20.038;2024-02-21T22:36:03;3.00;;;1.47;;
15065;SDS011;7632;64.944;20.038;2024-02-21T22:38:30;2.50;;;1.77;;
15065;SDS011;7632;64.944;20.038;2024-02-21T22:40:58;9.60;;;2.13;;
15065;SDS011;7632;64.944;20.038;2024-02-21T22:43:25;8.40;;;2.33;;
15065;SDS011;7632;64.944;20.038;2024-02-21T22:45:51;6.90;;;2.10;;
15065;SDS011;7632;64.944;20.038;2024-02-21T22:48:19;4.60;;;1.63;;
15065;SDS011;7632;64.944;20.038;2024-02-21T22:50:46;6.13;;;1.87;;
15065;SDS011;7632;64.944;20.038;2024-02-21T22:53:15;7.83;;;1.47;;
15065;SDS011;7632;64.944;20.038;2024-02-21T22:55:41;5.00;;;1.50;;
15065;SDS011;7632;64.944;20.038;2024-02-21T22:58:08;1.83;;;1.47;;
15065;SDS011;7632;64.944;20.038;2024-02-21T23:00:35;3.87;;;1.50;;
15065;SDS011;7632;64.944;20.038;2024-02-21T23:03:02;4.77;;;1.33;;
15065;SDS011;7632;64.944;20.038;2024-02-21T23:05:29;4.80;;;1.47;;
15065;SDS011;7632;64.944;20.038;2024-02-21T23:07:58;10.60;;;2.10;;
15065;SDS011;7632;64.944;20.038;2024-02-21T23:10:26;4.87;;;1.70;;
15065;SDS011;7632;64.944;20.038;2024-02-21T23:12:53;3.07;;;1.80;;
15065;SDS011;7632;64.944;20.038;2024-02-21T23:15:20;13.27;;;2.00;;
15065;SDS011;7632;64.944;20.038;2024-02-21T23:17:47;17.50;;;2.63;;
15065;SDS011;7632;64.944;20.038;2024-02-21T23:20:14;4.03;;;1.80;;
15065;SDS011;7632;64.944;20.038;2024-02-21T23:22:41;6.73;;;1.60;;
15065;SDS011;7632;64.944;20.038;2024-02-21T23:25:09;3.20;;;1.63;;
15065;SDS011;7632;64.944;20.038;2024-02-21T23:27:38;2.27;;;1.70;;
15065;SDS011;7632;64.944;20.038;2024-02-21T23:30:05;6.93;;;1.53;;
15065;SDS011;7632;64.944;20.038;2024-02-21T23:32:36;2.10;;;1.47;;
15065;SDS011;7632;64.944;20.038;2024-02-21T23:35:03;4.10;;;1.70;;
15065;SDS011;7632;64.944;20.038;2024-02-21T23:37:30;4.93;;;1.63;;
15065;SDS011;7632;64.944;20.038;2024-02-21T23:39:57;2.63;;;1.40;;
15065;SDS011;7632;64.944;20.038;2024-02-21T23:42:24;5.03;;;1.50;;
15065;SDS011;7632;64.944;20.038;2024-02-21T23:44:52;6.17;;;1.30;;
15065;SDS011;7632;64.944;20.038;2024-02-21T23:47:20;2.30;;;1.30;;
15065;SDS011;7632;64.944;20.038;2024-02-21T23:49:47;3.00;;;1.60;;
15065;SDS011;7632;64.944;20.038;2024-02-21T23:52:14;2.07;;;1.70;;
15065;SDS011;7632;64.944;20.038;2024-02-21T23:54:41;3.10;;;1.53;;
15065;SDS011;7632;64.944;20.038;2024-02-21T23:57:08;1.50;;;1.30;;
15065;SDS011;7632;64.944;20.038;2024-02-21T23:59:35;1.90;;;1.50;;
